sensor_id;sensor_type;location;lat;lon;timestamp;P1;durP1;ratioP1;P2;durP2;ratioP2
70547;SDS011;58099;43.406;3.698;2022-07-10T00:00:35;6.13;;;3.00;;
70547;SDS011;58099;43.406;3.698;2022-07-10T00:03:01;5.77;;;2.80;;
70547;SDS011;58099;43.406;3.698;2022-07-10T00:05:27;6.05;;;2.95;;
70547;SDS011;58099;43.406;3.698;2022-07-10T00:07:54;5.47;;;2.83;;
70547;SDS011;58099;43.406;3.698;2022-07-10T00:10:20;5.82;;;2.85;;
70547;SDS011;58099;43.406;3.698;2022-07-10T00:12:46;5.93;;;2.90;;
70547;SDS011;58099;43.406;3.698;2022-07-10T00:15:13;7.18;;;3.05;;
70547;SDS011;58099;43.406;3.698;2022-07-10T00:17:40;5.35;;;2.97;;
70547;SDS011;58099;43.406;3.698;2022-07-10T00:20:09;6.25;;;2.80;;
70547;SDS011;58099;43.406;3.698;2022-07-10T00:22:36;5.38;;;2.70;;
70547;SDS011;58099;43.406;3.698;2022-07-10T00:25:03;6.80;;;2.75;;
70547;SDS011;58099;43.406;3.698;2022-07-10T00:27:30;6.38;;;2.95;;
70547;SDS011;58099;43.406;3.698;2022-07-10T00:29:56;4.47;;;2.58;;
70547;SDS011;58099;43.406;3.698;2022-07-10T00:32:22;4.53;;;2.33;;
70547;SDS011;58099;43.406;3.698;2022-07-10T00:34:48;4.93;;;3.00;;
70547;SDS011;58099;43.406;3.698;2022-07-10T00:37:14;5.15;;;2.35;;
70547;SDS011;58099;43.406;3.698;2022-07-10T00:39:39;4.50;;;2.50;;
70547;SDS011;58099;43.406;3.698;2022-07-10T00:42:09;4.55;;;2.10;;
70547;SDS011;58099;43.406;3.698;2022-07-10T00:44:37;4.47;;;1.80;;
70547;SDS011;58099;43.406;3.698;2022-07-10T00:47:03;5.03;;;2.15;;
70547;SDS011;58099;43.406;3.698;2022-07-10T00:49:30;4.45;;;1.83;;
70547;SDS011;58099;43.406;3.698;2022-07-10T00:51:56;5.22;;;2.03;;
70547;SDS011;58099;43.406;3.698;2022-07-10T00:54:24;4.30;;;2.00;;
70547;SDS011;58099;43.406;3.698;2022-07-10T00:56:50;5.10;;;2.30;;
70547;SDS011;58099;43.406;3.698;2022-07-10T00:59:16;4.47;;;1.98;;
70547;SDS011;58099;43.406;3.698;2022-07-10T01:01:43;4.60;;;1.95;;
70547;SDS011;58099;43.406;3.698;2022-07-10T01:04:09;3.63;;;1.63;;
70547;SDS011;58099;43.406;3.698;2022-07-10T01:06:35;5.20;;;2.13;;
70547;SDS011;58099;43.406;3.698;2022-07-10T01:09:01;3.80;;;2.00;;
70547;SDS011;58099;43.406;3.698;2022-07-10T01:11:28;4.60;;;1.70;;
70547;SDS011;58099;43.406;3.698;2022-07-10T01:13:55;4.40;;;1.70;;
70547;SDS011;58099;43.406;3.698;2022-07-10T01:16:20;4.17;;;1.90;;
70547;SDS011;58099;43.406;3.698;2022-07-10T01:18:47;4.43;;;2.20;;
70547;SDS011;58099;43.406;3.698;2022-07-10T01:21:25;5.05;;;1.92;;
70547;SDS011;58099;43.406;3.698;2022-07-10T01:24:07;4.55;;;2.53;;
70547;SDS011;58099;43.406;3.698;2022-07-10T01:26:35;4.03;;;1.75;;
70547;SDS011;58099;43.406;3.698;2022-07-10T01:29:05;5.30;;;2.20;;
70547;SDS011;58099;43.406;3.698;2022-07-10T01:31:31;3.97;;;1.95;;
70547;SDS011;58099;43.406;3.698;2022-07-10T01:33:59;4.53;;;2.00;;
70547;SDS011;58099;43.406;3.698;2022-07-10T01:36:26;3.83;;;1.90;;
70547;SDS011;58099;43.406;3.698;2022-07-10T01:38:54;5.15;;;1.90;;
70547;SDS011;58099;43.406;3.698;2022-07-10T01:41:22;4.55;;;1.98;;
70547;SDS011;58099;43.406;3.698;2022-07-10T01:43:48;4.25;;;1.83;;
70547;SDS011;58099;43.406;3.698;2022-07-10T01:46:14;4.50;;;1.93;;
70547;SDS011;58099;43.406;3.698;2022-07-10T01:48:41;4.63;;;2.20;;
70547;SDS011;58099;43.406;3.698;2022-07-10T01:51:08;5.00;;;1.88;;
70547;SDS011;58099;43.406;3.698;2022-07-10T01:53:34;4.45;;;2.00;;
70547;SDS011;58099;43.406;3.698;2022-07-10T01:56:01;5.28;;;2.03;;
70547;SDS011;58099;43.406;3.698;2022-07-10T01:58:30;5.18;;;1.95;;
70547;SDS011;58099;43.406;3.698;2022-07-10T02:00:56;4.63;;;2.17;;
70547;SDS011;58099;43.406;3.698;2022-07-10T02:03:22;4.20;;;2.20;;
70547;SDS011;58099;43.406;3.698;2022-07-10T02:06:06;4.00;;;2.00;;
70547;SDS011;58099;43.406;3.698;2022-07-10T02:08:32;3.95;;;1.95;;
70547;SDS011;58099;43.406;3.698;2022-07-10T02:10:58;4.10;;;2.20;;
70547;SDS011;58099;43.406;3.698;2022-07-10T02:13:24;5.63;;;1.80;;
70547;SDS011;58099;43.406;3.698;2022-07-10T02:15:52;3.78;;;2.05;;
70547;SDS011;58099;43.406;3.698;2022-07-10T02:18:19;4.43;;;1.90;;
70547;SDS011;58099;43.406;3.698;2022-07-10T02:20:45;4.75;;;1.80;;
70547;SDS011;58099;43.406;3.698;2022-07-10T02:23:11;3.97;;;2.20;;
70547;SDS011;58099;43.406;3.698;2022-07-10T02:25:37;4.73;;;1.97;;
70547;SDS011;58099;43.406;3.698;2022-07-10T02:28:03;4.38;;;2.10;;
70547;SDS011;58099;43.406;3.698;2022-07-10T02:30:29;4.95;;;1.90;;
70547;SDS011;58099;43.406;3.698;2022-07-10T02:32:54;4.37;;;2.30;;
70547;SDS011;58099;43.406;3.698;2022-07-10T02:35:20;4.65;;;2.42;;
70547;SDS011;58099;43.406;3.698;2022-07-10T02:37:46;4.30;;;1.90;;
70547;SDS011;58099;43.406;3.698;2022-07-10T02:40:12;5.43;;;1.92;;
70547;SDS011;58099;43.406;3.698;2022-07-10T02:42:37;4.50;;;1.90;;
70547;SDS011;58099;43.406;3.698;2022-07-10T02:45:03;3.88;;;1.83;;
70547;SDS011;58099;43.406;3.698;2022-07-10T02:47:29;3.77;;;1.73;;
70547;SDS011;58099;43.406;3.698;2022-07-10T02:49:55;3.67;;;2.00;;
70547;SDS011;58099;43.406;3.698;2022-07-10T02:52:21;4.43;;;2.00;;
70547;SDS011;58099;43.406;3.698;2022-07-10T02:54:46;4.97;;;2.20;;
70547;SDS011;58099;43.406;3.698;2022-07-10T02:57:12;4.97;;;2.20;;
70547;SDS011;58099;43.406;3.698;2022-07-10T02:59:38;4.25;;;2.00;;
70547;SDS011;58099;43.406;3.698;2022-07-10T03:02:04;4.15;;;2.00;;
70547;SDS011;58099;43.406;3.698;2022-07-10T03:04:30;5.00;;;1.92;;
70547;SDS011;58099;43.406;3.698;2022-07-10T03:06:55;4.13;;;2.10;;
70547;SDS011;58099;43.406;3.698;2022-07-10T03:09:21;5.33;;;2.37;;
70547;SDS011;58099;43.406;3.698;2022-07-10T03:11:47;5.57;;;2.30;;
70547;SDS011;58099;43.406;3.698;2022-07-10T03:14:12;4.50;;;2.20;;
70547;SDS011;58099;43.406;3.698;2022-07-10T03:16:38;4.90;;;1.93;;
70547;SDS011;58099;43.406;3.698;2022-07-10T03:19:04;7.88;;;2.25;;
70547;SDS011;58099;43.406;3.698;2022-07-10T03:21:30;4.60;;;1.93;;
70547;SDS011;58099;43.406;3.698;2022-07-10T03:23:56;4.78;;;2.03;;
70547;SDS011;58099;43.406;3.698;2022-07-10T03:26:22;5.13;;;1.88;;
70547;SDS011;58099;43.406;3.698;2022-07-10T03:28:47;5.97;;;1.85;;
70547;SDS011;58099;43.406;3.698;2022-07-10T03:31:13;3.60;;;1.67;;
70547;SDS011;58099;43.406;3.698;2022-07-10T03:33:39;5.15;;;2.22;;
70547;SDS011;58099;43.406;3.698;2022-07-10T03:36:04;4.70;;;1.67;;
70547;SDS011;58099;43.406;3.698;2022-07-10T03:38:30;4.90;;;2.08;;
70547;SDS011;58099;43.406;3.698;2022-07-10T03:40:56;4.27;;;1.90;;
70547;SDS011;58099;43.406;3.698;2022-07-10T03:43:22;4.78;;;2.05;;
70547;SDS011;58099;43.406;3.698;2022-07-10T03:45:49;5.45;;;2.38;;
70547;SDS011;58099;43.406;3.698;2022-07-10T03:48:15;4.93;;;2.35;;
70547;SDS011;58099;43.406;3.698;2022-07-10T03:50:41;4.13;;;1.98;;
70547;SDS011;58099;43.406;3.698;2022-07-10T03:53:07;6.07;;;1.97;;
70547;SDS011;58099;43.406;3.698;2022-07-10T03:55:33;5.57;;;1.70;;
70547;SDS011;58099;43.406;3.698;2022-07-10T03:57:58;4.77;;;2.03;;
70547;SDS011;58099;43.406;3.698;2022-07-10T04:00:27;4.05;;;1.77;;
70547;SDS011;58099;43.406;3.698;2022-07-10T04:02:57;4.03;;;1.70;;
70547;SDS011;58099;43.406;3.698;2022-07-10T04:05:27;4.55;;;1.90;;
70547;SDS011;58099;43.406;3.698;2022-07-10T04:07:54;3.53;;;1.80;;
70547;SDS011;58099;43.406;3.698;2022-07-10T04:10:22;4.57;;;1.80;;
70547;SDS011;58099;43.406;3.698;2022-07-10T04:12:48;3.97;;;1.70;;
70547;SDS011;58099;43.406;3.698;2022-07-10T04:15:14;4.40;;;2.00;;
70547;SDS011;58099;43.406;3.698;2022-07-10T04:17:40;5.53;;;2.38;;
70547;SDS011;58099;43.406;3.698;2022-07-10T04:20:06;3.83;;;1.80;;
70547;SDS011;58099;43.406;3.698;2022-07-10T04:22:33;3.92;;;2.15;;
70547;SDS011;58099;43.406;3.698;2022-07-10T04:24:58;4.45;;;2.22;;
70547;SDS011;58099;43.406;3.698;2022-07-10T04:27:24;5.38;;;2.10;;
70547;SDS011;58099;43.406;3.698;2022-07-10T04:29:50;4.80;;;2.13;;
70547;SDS011;58099;43.406;3.698;2022-07-10T04:32:16;5.50;;;2.30;;
70547;SDS011;58099;43.406;3.698;2022-07-10T04:34:42;5.70;;;2.50;;
70547;SDS011;58099;43.406;3.698;2022-07-10T04:37:07;4.33;;;2.20;;
70547;SDS011;58099;43.406;3.698;2022-07-10T04:39:34;5.13;;;2.28;;
70547;SDS011;58099;43.406;3.698;2022-07-10T04:42:01;5.07;;;2.30;;
70547;SDS011;58099;43.406;3.698;2022-07-10T04:44:28;5.13;;;2.08;;
70547;SDS011;58099;43.406;3.698;2022-07-10T04:46:54;5.47;;;2.13;;
70547;SDS011;58099;43.406;3.698;2022-07-10T04:49:20;5.57;;;2.28;;
70547;SDS011;58099;43.406;3.698;2022-07-10T04:51:45;5.17;;;2.00;;
70547;SDS011;58099;43.406;3.698;2022-07-10T04:54:11;4.20;;;1.90;;
70547;SDS011;58099;43.406;3.698;2022-07-10T04:56:37;4.63;;;2.20;;
70547;SDS011;58099;43.406;3.698;2022-07-10T04:59:03;4.80;;;1.90;;
70547;SDS011;58099;43.406;3.698;2022-07-10T05:01:28;5.10;;;1.70;;
70547;SDS011;58099;43.406;3.698;2022-07-10T05:03:54;5.53;;;2.17;;
70547;SDS011;58099;43.406;3.698;2022-07-10T05:06:20;4.93;;;1.92;;
70547;SDS011;58099;43.406;3.698;2022-07-10T05:08:45;3.83;;;1.80;;
70547;SDS011;58099;43.406;3.698;2022-07-10T05:11:11;4.80;;;1.80;;
70547;SDS011;58099;43.406;3.698;2022-07-10T05:13:37;5.27;;;1.50;;
70547;SDS011;58099;43.406;3.698;2022-07-10T05:16:04;4.05;;;1.60;;
70547;SDS011;58099;43.406;3.698;2022-07-10T05:18:30;5.22;;;1.95;;
70547;SDS011;58099;43.406;3.698;2022-07-10T05:20:56;4.43;;;1.83;;
70547;SDS011;58099;43.406;3.698;2022-07-10T05:23:21;4.72;;;1.75;;
70547;SDS011;58099;43.406;3.698;2022-07-10T05:25:47;4.90;;;1.80;;
70547;SDS011;58099;43.406;3.698;2022-07-10T05:28:13;4.07;;;1.70;;
70547;SDS011;58099;43.406;3.698;2022-07-10T05:30:40;4.50;;;1.90;;
70547;SDS011;58099;43.406;3.698;2022-07-10T05:33:06;5.38;;;1.77;;
70547;SDS011;58099;43.406;3.698;2022-07-10T05:35:32;3.83;;;1.43;;
70547;SDS011;58099;43.406;3.698;2022-07-10T05:37:58;4.88;;;1.90;;
70547;SDS011;58099;43.406;3.698;2022-07-10T05:40:24;5.10;;;1.65;;
70547;SDS011;58099;43.406;3.698;2022-07-10T05:42:50;4.87;;;1.70;;
70547;SDS011;58099;43.406;3.698;2022-07-10T05:45:16;4.22;;;1.60;;
70547;SDS011;58099;43.406;3.698;2022-07-10T05:47:43;3.70;;;1.70;;
70547;SDS011;58099;43.406;3.698;2022-07-10T05:50:09;4.65;;;2.00;;
70547;SDS011;58099;43.406;3.698;2022-07-10T05:52:36;4.22;;;1.98;;
70547;SDS011;58099;43.406;3.698;2022-07-10T05:55:02;4.25;;;1.70;;
70547;SDS011;58099;43.406;3.698;2022-07-10T05:57:31;5.50;;;2.30;;
70547;SDS011;58099;43.406;3.698;2022-07-10T05:59:57;6.32;;;3.10;;
70547;SDS011;58099;43.406;3.698;2022-07-10T06:02:23;5.78;;;2.50;;
70547;SDS011;58099;43.406;3.698;2022-07-10T06:04:49;4.93;;;2.33;;
70547;SDS011;58099;43.406;3.698;2022-07-10T06:07:15;4.97;;;2.00;;
70547;SDS011;58099;43.406;3.698;2022-07-10T06:09:41;4.28;;;1.88;;
70547;SDS011;58099;43.406;3.698;2022-07-10T06:12:07;6.22;;;2.17;;
70547;SDS011;58099;43.406;3.698;2022-07-10T06:14:33;5.00;;;1.98;;
70547;SDS011;58099;43.406;3.698;2022-07-10T06:16:59;5.77;;;2.43;;
70547;SDS011;58099;43.406;3.698;2022-07-10T06:19:24;4.32;;;1.90;;
70547;SDS011;58099;43.406;3.698;2022-07-10T06:21:50;5.10;;;2.00;;
70547;SDS011;58099;43.406;3.698;2022-07-10T06:24:36;5.03;;;1.87;;
70547;SDS011;58099;43.406;3.698;2022-07-10T06:27:02;6.68;;;2.40;;
70547;SDS011;58099;43.406;3.698;2022-07-10T06:29:28;4.28;;;1.67;;
70547;SDS011;58099;43.406;3.698;2022-07-10T06:31:54;6.13;;;1.60;;
70547;SDS011;58099;43.406;3.698;2022-07-10T06:34:19;4.38;;;1.55;;
70547;SDS011;58099;43.406;3.698;2022-07-10T06:36:45;5.57;;;1.30;;
70547;SDS011;58099;43.406;3.698;2022-07-10T06:39:11;3.88;;;1.48;;
70547;SDS011;58099;43.406;3.698;2022-07-10T06:41:37;4.32;;;1.25;;
70547;SDS011;58099;43.406;3.698;2022-07-10T06:44:04;3.85;;;1.60;;
70547;SDS011;58099;43.406;3.698;2022-07-10T06:46:31;4.43;;;1.60;;
70547;SDS011;58099;43.406;3.698;2022-07-10T06:48:57;3.22;;;1.23;;
70547;SDS011;58099;43.406;3.698;2022-07-10T06:51:23;3.85;;;1.40;;
70547;SDS011;58099;43.406;3.698;2022-07-10T06:53:49;4.33;;;1.40;;
70547;SDS011;58099;43.406;3.698;2022-07-10T06:56:15;4.03;;;1.20;;
70547;SDS011;58099;43.406;3.698;2022-07-10T06:58:41;3.05;;;1.17;;
70547;SDS011;58099;43.406;3.698;2022-07-10T07:01:07;3.80;;;1.38;;
70547;SDS011;58099;43.406;3.698;2022-07-10T07:03:33;3.73;;;1.13;;
70547;SDS011;58099;43.406;3.698;2022-07-10T07:05:59;3.80;;;1.20;;
70547;SDS011;58099;43.406;3.698;2022-07-10T07:08:25;4.35;;;1.30;;
70547;SDS011;58099;43.406;3.698;2022-07-10T07:10:51;4.70;;;1.40;;
70547;SDS011;58099;43.406;3.698;2022-07-10T07:13:16;3.77;;;1.20;;
70547;SDS011;58099;43.406;3.698;2022-07-10T07:15:42;6.72;;;1.60;;
70547;SDS011;58099;43.406;3.698;2022-07-10T07:18:14;4.75;;;1.90;;
70547;SDS011;58099;43.406;3.698;2022-07-10T07:20:41;5.78;;;1.80;;
70547;SDS011;58099;43.406;3.698;2022-07-10T07:23:26;5.72;;;1.85;;
70547;SDS011;58099;43.406;3.698;2022-07-10T07:25:52;6.30;;;1.50;;
70547;SDS011;58099;43.406;3.698;2022-07-10T07:28:18;4.90;;;1.50;;
70547;SDS011;58099;43.406;3.698;2022-07-10T07:30:47;5.88;;;1.75;;
70547;SDS011;58099;43.406;3.698;2022-07-10T07:33:14;5.23;;;1.20;;
70547;SDS011;58099;43.406;3.698;2022-07-10T07:35:40;4.35;;;1.60;;
70547;SDS011;58099;43.406;3.698;2022-07-10T07:38:06;4.38;;;2.03;;
70547;SDS011;58099;43.406;3.698;2022-07-10T07:40:31;4.80;;;1.60;;
70547;SDS011;58099;43.406;3.698;2022-07-10T07:42:58;5.43;;;1.70;;
70547;SDS011;58099;43.406;3.698;2022-07-10T07:45:25;3.97;;;2.13;;
70547;SDS011;58099;43.406;3.698;2022-07-10T07:50:30;4.10;;;1.30;;
70547;SDS011;58099;43.406;3.698;2022-07-10T07:53:03;4.40;;;1.88;;
70547;SDS011;58099;43.406;3.698;2022-07-10T07:55:30;3.45;;;1.50;;
70547;SDS011;58099;43.406;3.698;2022-07-10T07:57:58;3.88;;;2.10;;
70547;SDS011;58099;43.406;3.698;2022-07-10T08:00:26;4.63;;;1.98;;
70547;SDS011;58099;43.406;3.698;2022-07-10T08:02:53;4.43;;;2.05;;
70547;SDS011;58099;43.406;3.698;2022-07-10T08:05:19;4.72;;;2.10;;
70547;SDS011;58099;43.406;3.698;2022-07-10T08:07:50;4.20;;;2.20;;
70547;SDS011;58099;43.406;3.698;2022-07-10T08:10:18;7.53;;;2.92;;
70547;SDS011;58099;43.406;3.698;2022-07-10T08:12:45;5.88;;;2.40;;
70547;SDS011;58099;43.406;3.698;2022-07-10T08:15:12;5.68;;;2.15;;
70547;SDS011;58099;43.406;3.698;2022-07-10T08:17:41;7.15;;;1.70;;
70547;SDS011;58099;43.406;3.698;2022-07-10T08:20:07;4.32;;;1.52;;
70547;SDS011;58099;43.406;3.698;2022-07-10T08:22:36;5.18;;;1.60;;
70547;SDS011;58099;43.406;3.698;2022-07-10T08:25:02;5.35;;;1.52;;
70547;SDS011;58099;43.406;3.698;2022-07-10T08:27:28;4.13;;;1.37;;
70547;SDS011;58099;43.406;3.698;2022-07-10T08:29:53;3.72;;;1.55;;
70547;SDS011;58099;43.406;3.698;2022-07-10T08:32:20;5.82;;;1.90;;
70547;SDS011;58099;43.406;3.698;2022-07-10T08:34:45;4.80;;;1.60;;
70547;SDS011;58099;43.406;3.698;2022-07-10T08:37:13;7.28;;;1.60;;
70547;SDS011;58099;43.406;3.698;2022-07-10T08:39:38;5.97;;;2.00;;
70547;SDS011;58099;43.406;3.698;2022-07-10T08:42:04;32.13;;;4.30;;
70547;SDS011;58099;43.406;3.698;2022-07-10T08:44:33;16.75;;;3.15;;
70547;SDS011;58099;43.406;3.698;2022-07-10T08:46:59;7.50;;;2.20;;
70547;SDS011;58099;43.406;3.698;2022-07-10T08:49:27;4.22;;;2.28;;
70547;SDS011;58099;43.406;3.698;2022-07-10T08:51:57;4.43;;;1.70;;
70547;SDS011;58099;43.406;3.698;2022-07-10T08:54:27;4.07;;;1.75;;
70547;SDS011;58099;43.406;3.698;2022-07-10T08:56:56;5.60;;;1.85;;
70547;SDS011;58099;43.406;3.698;2022-07-10T08:59:23;5.32;;;1.35;;
70547;SDS011;58099;43.406;3.698;2022-07-10T09:01:48;3.65;;;1.90;;
70547;SDS011;58099;43.406;3.698;2022-07-10T09:04:18;3.17;;;1.50;;
70547;SDS011;58099;43.406;3.698;2022-07-10T09:06:45;4.38;;;1.80;;
70547;SDS011;58099;43.406;3.698;2022-07-10T09:09:10;3.95;;;1.42;;
70547;SDS011;58099;43.406;3.698;2022-07-10T09:11:37;3.50;;;1.65;;
70547;SDS011;58099;43.406;3.698;2022-07-10T09:14:06;5.20;;;2.25;;
70547;SDS011;58099;43.406;3.698;2022-07-10T09:16:34;4.57;;;1.60;;
70547;SDS011;58099;43.406;3.698;2022-07-10T09:21:46;3.85;;;1.42;;
70547;SDS011;58099;43.406;3.698;2022-07-10T09:24:16;3.45;;;1.70;;
70547;SDS011;58099;43.406;3.698;2022-07-10T09:26:47;4.40;;;1.83;;
70547;SDS011;58099;43.406;3.698;2022-07-10T09:29:28;5.10;;;1.95;;
70547;SDS011;58099;43.406;3.698;2022-07-10T09:31:58;3.92;;;2.00;;
70547;SDS011;58099;43.406;3.698;2022-07-10T09:34:35;3.70;;;1.50;;
70547;SDS011;58099;43.406;3.698;2022-07-10T09:44:50;3.45;;;1.92;;
70547;SDS011;58099;43.406;3.698;2022-07-10T09:47:22;4.93;;;2.17;;
70547;SDS011;58099;43.406;3.698;2022-07-10T09:49:48;4.05;;;2.05;;
70547;SDS011;58099;43.406;3.698;2022-07-10T09:52:15;3.75;;;2.22;;
70547;SDS011;58099;43.406;3.698;2022-07-10T09:54:44;4.68;;;2.20;;
70547;SDS011;58099;43.406;3.698;2022-07-10T09:57:11;3.72;;;2.10;;
70547;SDS011;58099;43.406;3.698;2022-07-10T09:59:41;4.50;;;2.13;;
70547;SDS011;58099;43.406;3.698;2022-07-10T10:02:07;4.07;;;2.20;;
70547;SDS011;58099;43.406;3.698;2022-07-10T10:04:36;4.65;;;1.98;;
70547;SDS011;58099;43.406;3.698;2022-07-10T10:07:03;7.85;;;6.35;;
70547;SDS011;58099;43.406;3.698;2022-07-10T10:09:33;8.50;;;7.65;;
70547;SDS011;58099;43.406;3.698;2022-07-10T10:12:13;7.90;;;6.03;;
70547;SDS011;58099;43.406;3.698;2022-07-10T10:14:43;7.72;;;6.30;;
70547;SDS011;58099;43.406;3.698;2022-07-10T10:17:09;10.25;;;5.72;;
70547;SDS011;58099;43.406;3.698;2022-07-10T10:19:36;6.38;;;4.28;;
70547;SDS011;58099;43.406;3.698;2022-07-10T10:22:24;7.15;;;6.45;;
70547;SDS011;58099;43.406;3.698;2022-07-10T10:24:50;6.07;;;4.30;;
70547;SDS011;58099;43.406;3.698;2022-07-10T10:27:18;4.82;;;3.17;;
70547;SDS011;58099;43.406;3.698;2022-07-10T10:29:45;7.00;;;3.40;;
70547;SDS011;58099;43.406;3.698;2022-07-10T10:32:13;4.28;;;2.58;;
70547;SDS011;58099;43.406;3.698;2022-07-10T10:37:06;4.25;;;3.30;;
70547;SDS011;58099;43.406;3.698;2022-07-10T10:39:52;12.23;;;8.75;;
70547;SDS011;58099;43.406;3.698;2022-07-10T10:48:06;5.38;;;3.42;;
70547;SDS011;58099;43.406;3.698;2022-07-10T10:50:41;5.22;;;2.80;;
70547;SDS011;58099;43.406;3.698;2022-07-10T10:53:17;5.63;;;2.40;;
70547;SDS011;58099;43.406;3.698;2022-07-10T10:56:38;5.45;;;2.72;;
70547;SDS011;58099;43.406;3.698;2022-07-10T10:58:40;4.15;;;2.70;;
70547;SDS011;58099;43.406;3.698;2022-07-10T11:06:41;4.32;;;2.70;;
70547;SDS011;58099;43.406;3.698;2022-07-10T11:09:35;3.83;;;2.28;;
70547;SDS011;58099;43.406;3.698;2022-07-10T11:12:08;4.93;;;2.55;;
70547;SDS011;58099;43.406;3.698;2022-07-10T11:14:35;4.65;;;2.55;;
70547;SDS011;58099;43.406;3.698;2022-07-10T11:17:03;4.70;;;2.20;;
70547;SDS011;58099;43.406;3.698;2022-07-10T11:19:30;4.47;;;2.05;;
70547;SDS011;58099;43.406;3.698;2022-07-10T11:28:06;3.97;;;1.95;;
70547;SDS011;58099;43.406;3.698;2022-07-10T11:30:43;5.18;;;2.20;;
70547;SDS011;58099;43.406;3.698;2022-07-10T11:33:16;3.58;;;1.92;;
70547;SDS011;58099;43.406;3.698;2022-07-10T11:35:46;4.70;;;1.95;;
70547;SDS011;58099;43.406;3.698;2022-07-10T11:38:13;4.47;;;2.20;;
70547;SDS011;58099;43.406;3.698;2022-07-10T11:40:44;5.18;;;2.25;;
70547;SDS011;58099;43.406;3.698;2022-07-10T11:43:10;3.95;;;2.38;;
70547;SDS011;58099;43.406;3.698;2022-07-10T11:45:39;4.28;;;2.05;;
70547;SDS011;58099;43.406;3.698;2022-07-10T11:48:06;3.45;;;1.92;;
70547;SDS011;58099;43.406;3.698;2022-07-10T11:50:37;6.10;;;1.90;;
70547;SDS011;58099;43.406;3.698;2022-07-10T11:53:03;4.28;;;1.90;;
70547;SDS011;58099;43.406;3.698;2022-07-10T11:55:30;5.18;;;1.80;;
70547;SDS011;58099;43.406;3.698;2022-07-10T11:58:11;7.78;;;1.52;;
70547;SDS011;58099;43.406;3.698;2022-07-10T12:00:41;3.63;;;1.77;;
70547;SDS011;58099;43.406;3.698;2022-07-10T12:03:20;4.27;;;1.90;;
70547;SDS011;58099;43.406;3.698;2022-07-10T12:05:46;5.07;;;2.28;;
70547;SDS011;58099;43.406;3.698;2022-07-10T12:08:13;4.30;;;1.70;;
70547;SDS011;58099;43.406;3.698;2022-07-10T12:10:39;3.65;;;1.98;;
70547;SDS011;58099;43.406;3.698;2022-07-10T12:13:07;3.67;;;1.90;;
70547;SDS011;58099;43.406;3.698;2022-07-10T12:18:15;3.92;;;2.28;;
70547;SDS011;58099;43.406;3.698;2022-07-10T12:20:45;4.03;;;2.08;;
70547;SDS011;58099;43.406;3.698;2022-07-10T12:23:15;5.85;;;2.15;;
70547;SDS011;58099;43.406;3.698;2022-07-10T12:25:48;5.72;;;2.28;;
70547;SDS011;58099;43.406;3.698;2022-07-10T12:28:14;5.07;;;2.22;;
70547;SDS011;58099;43.406;3.698;2022-07-10T12:30:47;4.70;;;2.28;;
70547;SDS011;58099;43.406;3.698;2022-07-10T12:33:15;4.30;;;2.15;;
70547;SDS011;58099;43.406;3.698;2022-07-10T12:38:17;3.83;;;2.13;;
70547;SDS011;58099;43.406;3.698;2022-07-10T12:40:46;5.45;;;2.47;;
70547;SDS011;58099;43.406;3.698;2022-07-10T12:43:12;4.18;;;1.52;;
70547;SDS011;58099;43.406;3.698;2022-07-10T12:48:35;4.10;;;1.80;;
70547;SDS011;58099;43.406;3.698;2022-07-10T12:53:46;4.20;;;2.08;;
70547;SDS011;58099;43.406;3.698;2022-07-10T12:59:01;3.50;;;1.92;;
70547;SDS011;58099;43.406;3.698;2022-07-10T13:01:28;3.75;;;2.05;;
70547;SDS011;58099;43.406;3.698;2022-07-10T13:04:04;4.32;;;2.00;;
70547;SDS011;58099;43.406;3.698;2022-07-10T13:06:30;4.15;;;2.03;;
70547;SDS011;58099;43.406;3.698;2022-07-10T13:08:57;4.50;;;2.13;;
70547;SDS011;58099;43.406;3.698;2022-07-10T13:11:23;4.47;;;2.25;;
70547;SDS011;58099;43.406;3.698;2022-07-10T13:13:49;4.38;;;2.08;;
70547;SDS011;58099;43.406;3.698;2022-07-10T13:16:15;3.63;;;2.00;;
70547;SDS011;58099;43.406;3.698;2022-07-10T13:18:44;4.28;;;2.28;;
70547;SDS011;58099;43.406;3.698;2022-07-10T13:21:10;3.80;;;1.75;;
70547;SDS011;58099;43.406;3.698;2022-07-10T13:23:36;3.33;;;1.93;;
70547;SDS011;58099;43.406;3.698;2022-07-10T13:26:03;3.50;;;2.00;;
70547;SDS011;58099;43.406;3.698;2022-07-10T13:28:29;5.00;;;2.20;;
70547;SDS011;58099;43.406;3.698;2022-07-10T13:30:55;4.28;;;2.40;;
70547;SDS011;58099;43.406;3.698;2022-07-10T13:33:21;3.90;;;1.90;;
70547;SDS011;58099;43.406;3.698;2022-07-10T13:35:48;4.60;;;2.13;;
70547;SDS011;58099;43.406;3.698;2022-07-10T13:38:14;3.97;;;2.20;;
70547;SDS011;58099;43.406;3.698;2022-07-10T13:40:42;3.22;;;1.38;;
70547;SDS011;58099;43.406;3.698;2022-07-10T13:43:09;4.22;;;1.95;;
70547;SDS011;58099;43.406;3.698;2022-07-10T13:45:35;4.05;;;1.80;;
70547;SDS011;58099;43.406;3.698;2022-07-10T13:48:19;4.03;;;1.98;;
70547;SDS011;58099;43.406;3.698;2022-07-10T13:50:45;5.40;;;2.00;;
70547;SDS011;58099;43.406;3.698;2022-07-10T13:53:12;3.80;;;2.28;;
70547;SDS011;58099;43.406;3.698;2022-07-10T13:55:38;4.35;;;2.30;;
70547;SDS011;58099;43.406;3.698;2022-07-10T13:58:04;3.93;;;2.07;;
70547;SDS011;58099;43.406;3.698;2022-07-10T14:00:30;5.00;;;2.17;;
70547;SDS011;58099;43.406;3.698;2022-07-10T14:02:55;3.97;;;2.00;;
70547;SDS011;58099;43.406;3.698;2022-07-10T14:05:22;4.47;;;1.70;;
70547;SDS011;58099;43.406;3.698;2022-07-10T14:07:49;3.40;;;1.75;;
70547;SDS011;58099;43.406;3.698;2022-07-10T14:10:14;4.55;;;2.00;;
70547;SDS011;58099;43.406;3.698;2022-07-10T14:12:40;3.60;;;1.90;;
70547;SDS011;58099;43.406;3.698;2022-07-10T14:15:07;3.67;;;1.50;;
70547;SDS011;58099;43.406;3.698;2022-07-10T14:17:33;4.05;;;1.75;;
70547;SDS011;58099;43.406;3.698;2022-07-10T14:19:59;5.30;;;2.20;;
70547;SDS011;58099;43.406;3.698;2022-07-10T14:22:25;4.03;;;2.03;;
70547;SDS011;58099;43.406;3.698;2022-07-10T14:24:51;4.20;;;1.45;;
70547;SDS011;58099;43.406;3.698;2022-07-10T14:27:19;3.33;;;1.58;;
70547;SDS011;58099;43.406;3.698;2022-07-10T14:29:44;3.28;;;1.90;;
70547;SDS011;58099;43.406;3.698;2022-07-10T14:32:10;3.70;;;1.37;;
70547;SDS011;58099;43.406;3.698;2022-07-10T14:34:36;4.68;;;1.90;;
70547;SDS011;58099;43.406;3.698;2022-07-10T14:37:02;5.90;;;1.90;;
70547;SDS011;58099;43.406;3.698;2022-07-10T14:39:27;4.65;;;2.05;;
70547;SDS011;58099;43.406;3.698;2022-07-10T14:41:53;4.55;;;1.60;;
70547;SDS011;58099;43.406;3.698;2022-07-10T14:44:19;3.33;;;1.43;;
70547;SDS011;58099;43.406;3.698;2022-07-10T14:46:45;4.05;;;2.05;;
70547;SDS011;58099;43.406;3.698;2022-07-10T14:49:10;3.60;;;1.67;;
70547;SDS011;58099;43.406;3.698;2022-07-10T14:51:36;3.63;;;1.88;;
70547;SDS011;58099;43.406;3.698;2022-07-10T14:54:02;3.83;;;1.50;;
70547;SDS011;58099;43.406;3.698;2022-07-10T14:56:28;3.88;;;1.70;;
70547;SDS011;58099;43.406;3.698;2022-07-10T14:58:54;4.47;;;1.97;;
70547;SDS011;58099;43.406;3.698;2022-07-10T15:01:19;4.07;;;2.10;;
70547;SDS011;58099;43.406;3.698;2022-07-10T15:03:46;4.32;;;1.63;;
70547;SDS011;58099;43.406;3.698;2022-07-10T15:06:12;4.20;;;1.45;;
70547;SDS011;58099;43.406;3.698;2022-07-10T15:08:37;5.28;;;1.90;;
70547;SDS011;58099;43.406;3.698;2022-07-10T15:11:03;3.97;;;1.90;;
70547;SDS011;58099;43.406;3.698;2022-07-10T15:13:30;4.25;;;1.80;;
70547;SDS011;58099;43.406;3.698;2022-07-10T15:15:56;4.15;;;1.83;;
70547;SDS011;58099;43.406;3.698;2022-07-10T15:18:22;3.63;;;2.00;;
70547;SDS011;58099;43.406;3.698;2022-07-10T15:20:48;3.70;;;1.75;;
70547;SDS011;58099;43.406;3.698;2022-07-10T15:23:14;5.23;;;2.17;;
70547;SDS011;58099;43.406;3.698;2022-07-10T15:25:40;4.55;;;1.88;;
70547;SDS011;58099;43.406;3.698;2022-07-10T15:28:07;3.70;;;1.52;;
70547;SDS011;58099;43.406;3.698;2022-07-10T15:30:34;3.85;;;1.80;;
70547;SDS011;58099;43.406;3.698;2022-07-10T15:33:00;3.53;;;1.60;;
70547;SDS011;58099;43.406;3.698;2022-07-10T15:35:27;5.15;;;2.05;;